Strona główna
METAR-TAF:

METAR-TAF

Lotnisko :

Port lotniczy Hongkong

Hongkong, Chiny

Szerokość geograficzna: 22-19N, Długość geograficzna: 113-55E, wysokość: 9 m

Aktualna obserwacja pogody

Raport powstał 35 minut temu, godzina 08:30 UTC
Wiatr 12 kt od wschód, zmienny między wschodnio-północny wschód i południowy wschód
Temperatura 25°C
Wilgotność 69%
Ciśnienie 1017 hPa
Widzialność 10 km lub więcej
Mało chmury na wysokości 2200 ft
Rozproszone chmury na wysokości 3000 ft

METAR: VHHH 200830Z 09012KT 070V130 9999 FEW022 SCT030 25/19 Q1017 NOSIG

czas: 17:05 (09:05 UTC)

Prognoza

Raport powstał 4 godziny i 5 minut temu, godzina 05:00 UTC
Prognoza ważna od 20 godzina 06 UTC do 21 godzina 12 UTC
Wiatr 15 kt od wschód
Widzialność 10 km lub więcej
Mało chmury na wysokości 2500 ft
Rozproszone chmury na wysokości 3500 ft

TAF: VHHH 200500Z 2006/2112 09015KT 9999 FEW025 SCT035 TX27/2007Z TX29/2107Z TN24/2022Z

Obserwacja i prognoza pogody dla ponad 4000 lotnisk (raport METAR i TAF).

Dostępne stacje oznaczono żółtymi i czerwonymi punktami na mapie.

Najedź kursorem aby zobaczyć nazwę stacji.

Kliknij aby zobaczyć obserwacje i prognozy pogody.

Aby zmienić mapę: kliknij na zielony przycisk z czarnym krzyżykiem, aby powiększyć; na zielony przycisk z myślnikiem, aby pomniejszyć; na zielone strzałki, aby przejść do map sąsiednich.


METAR-TAF: